sensor_id;sensor_type;location;lat;lon;timestamp;temperature;humidity
9861;DHT22;4969;52.304;4.968;2022-10-16T00:00:24;19.55;63.74
9861;DHT22;4969;52.304;4.968;2022-10-16T00:02:50;19.73;64.55
9861;DHT22;4969;52.304;4.968;2022-10-16T00:05:17;19.63;64.99
9861;DHT22;4969;52.304;4.968;2022-10-16T00:07:44;19.27;63.92
9861;DHT22;4969;52.304;4.968;2022-10-16T00:10:12;19.47;65.39
9861;DHT22;4969;52.304;4.968;2022-10-16T00:12:38;19.93;64.08
9861;DHT22;4969;52.304;4.968;2022-10-16T00:15:06;19.96;64.37
9861;DHT22;4969;52.304;4.968;2022-10-16T00:17:32;20.02;63.66
9861;DHT22;4969;52.304;4.968;2022-10-16T00:19:59;19.95;64.18
9861;DHT22;4969;52.304;4.968;2022-10-16T00:22:26;19.48;62.57
9861;DHT22;4969;52.304;4.968;2022-10-16T00:24:52;19.50;65.05
9861;DHT22;4969;52.304;4.968;2022-10-16T00:27:20;19.52;65.45
9861;DHT22;4969;52.304;4.968;2022-10-16T00:29:49;19.40;64.91
9861;DHT22;4969;52.304;4.968;2022-10-16T00:32:16;19.30;65.42
9861;DHT22;4969;52.304;4.968;2022-10-16T00:34:42;19.03;66.14
9861;DHT22;4969;52.304;4.968;2022-10-16T00:37:09;19.19;65.62
9861;DHT22;4969;52.304;4.968;2022-10-16T00:39:36;18.83;62.91
9861;DHT22;4969;52.304;4.968;2022-10-16T00:42:03;18.88;64.72
9861;DHT22;4969;52.304;4.968;2022-10-16T00:44:46;19.31;64.59
9861;DHT22;4969;52.304;4.968;2022-10-16T00:47:19;19.10;64.25
9861;DHT22;4969;52.304;4.968;2022-10-16T00:49:46;19.11;66.91
9861;DHT22;4969;52.304;4.968;2022-10-16T00:52:14;19.23;66.51
9861;DHT22;4969;52.304;4.968;2022-10-16T00:54:41;19.16;63.62
9861;DHT22;4969;52.304;4.968;2022-10-16T00:57:08;19.42;65.69
9861;DHT22;4969;52.304;4.968;2022-10-16T00:59:36;19.47;65.64
9861;DHT22;4969;52.304;4.968;2022-10-16T01:02:07;19.22;65.08
9861;DHT22;4969;52.304;4.968;2022-10-16T01:04:36;19.42;63.95
9861;DHT22;4969;52.304;4.968;2022-10-16T01:07:09;19.48;63.14
9861;DHT22;4969;52.304;4.968;2022-10-16T01:09:47;19.41;64.43
9861;DHT22;4969;52.304;4.968;2022-10-16T01:12:22;19.06;66.50
9861;DHT22;4969;52.304;4.968;2022-10-16T01:14:54;19.22;63.85
9861;DHT22;4969;52.304;4.968;2022-10-16T01:17:28;19.20;66.73
9861;DHT22;4969;52.304;4.968;2022-10-16T01:20:12;19.14;66.56
9861;DHT22;4969;52.304;4.968;2022-10-16T01:22:50;19.02;63.87
9861;DHT22;4969;52.304;4.968;2022-10-16T01:25:27;19.11;65.99
9861;DHT22;4969;52.304;4.968;2022-10-16T01:27:59;19.06;64.95
9861;DHT22;4969;52.304;4.968;2022-10-16T01:30:30;18.96;65.82
9861;DHT22;4969;52.304;4.968;2022-10-16T01:32:59;19.20;66.14
9861;DHT22;4969;52.304;4.968;2022-10-16T01:35:30;19.03;63.83
9861;DHT22;4969;52.304;4.968;2022-10-16T01:38:01;18.89;67.13
9861;DHT22;4969;52.304;4.968;2022-10-16T01:40:31;19.10;65.22
9861;DHT22;4969;52.304;4.968;2022-10-16T01:43:03;18.88;64.92
9861;DHT22;4969;52.304;4.968;2022-10-16T01:45:32;19.00;67.36
9861;DHT22;4969;52.304;4.968;2022-10-16T01:48:01;18.99;67.07
9861;DHT22;4969;52.304;4.968;2022-10-16T01:50:31;18.71;64.17
9861;DHT22;4969;52.304;4.968;2022-10-16T01:53:00;18.82;63.76
9861;DHT22;4969;52.304;4.968;2022-10-16T01:55:30;19.30;66.48
9861;DHT22;4969;52.304;4.968;2022-10-16T01:58:01;18.92;64.36
9861;DHT22;4969;52.304;4.968;2022-10-16T02:00:29;19.24;66.56
9861;DHT22;4969;52.304;4.968;2022-10-16T02:02:57;19.03;66.91
9861;DHT22;4969;52.304;4.968;2022-10-16T02:05:31;19.27;65.96
9861;DHT22;4969;52.304;4.968;2022-10-16T02:07:58;19.35;65.50
9861;DHT22;4969;52.304;4.968;2022-10-16T02:10:25;19.13;66.58
9861;DHT22;4969;52.304;4.968;2022-10-16T02:12:58;19.17;64.95
9861;DHT22;4969;52.304;4.968;2022-10-16T02:15:27;19.14;66.57
9861;DHT22;4969;52.304;4.968;2022-10-16T02:17:53;19.20;65.27
9861;DHT22;4969;52.304;4.968;2022-10-16T02:20:24;18.96;66.84
9861;DHT22;4969;52.304;4.968;2022-10-16T02:22:52;18.88;66.86
9861;DHT22;4969;52.304;4.968;2022-10-16T02:25:27;19.31;65.30
9861;DHT22;4969;52.304;4.968;2022-10-16T02:28:01;18.96;67.18
9861;DHT22;4969;52.304;4.968;2022-10-16T02:30:36;19.28;65.96
9861;DHT22;4969;52.304;4.968;2022-10-16T02:33:06;19.28;65.94
9861;DHT22;4969;52.304;4.968;2022-10-16T02:35:33;19.35;64.21
9861;DHT22;4969;52.304;4.968;2022-10-16T02:38:01;19.50;65.98
9861;DHT22;4969;52.304;4.968;2022-10-16T02:40:28;19.20;65.81
9861;DHT22;4969;52.304;4.968;2022-10-16T02:42:55;19.38;66.60
9861;DHT22;4969;52.304;4.968;2022-10-16T02:45:22;19.52;65.26
9861;DHT22;4969;52.304;4.968;2022-10-16T02:47:51;19.26;62.67
9861;DHT22;4969;52.304;4.968;2022-10-16T02:50:17;19.23;64.68
9861;DHT22;4969;52.304;4.968;2022-10-16T02:52:44;19.17;65.65
9861;DHT22;4969;52.304;4.968;2022-10-16T02:55:10;19.06;66.34
9861;DHT22;4969;52.304;4.968;2022-10-16T02:57:37;18.85;67.78
9861;DHT22;4969;52.304;4.968;2022-10-16T03:00:06;19.13;66.99
9861;DHT22;4969;52.304;4.968;2022-10-16T03:02:33;18.92;67.52
9861;DHT22;4969;52.304;4.968;2022-10-16T03:05:01;18.95;64.02
9861;DHT22;4969;52.304;4.968;2022-10-16T03:07:27;19.24;65.83
9861;DHT22;4969;52.304;4.968;2022-10-16T03:09:54;19.11;66.52
9861;DHT22;4969;52.304;4.968;2022-10-16T03:12:20;19.45;66.33
9861;DHT22;4969;52.304;4.968;2022-10-16T03:14:47;19.38;66.38
9861;DHT22;4969;52.304;4.968;2022-10-16T03:17:14;19.34;65.35
9861;DHT22;4969;52.304;4.968;2022-10-16T03:19:41;18.96;64.88
9861;DHT22;4969;52.304;4.968;2022-10-16T03:22:09;18.96;66.09
9861;DHT22;4969;52.304;4.968;2022-10-16T03:24:36;19.06;63.48
9861;DHT22;4969;52.304;4.968;2022-10-16T03:27:02;18.85;66.16
9861;DHT22;4969;52.304;4.968;2022-10-16T03:29:29;18.54;65.35
9861;DHT22;4969;52.304;4.968;2022-10-16T03:31:57;19.14;67.03
9861;DHT22;4969;52.304;4.968;2022-10-16T03:34:24;19.45;65.64
9861;DHT22;4969;52.304;4.968;2022-10-16T03:36:50;19.54;65.39
9861;DHT22;4969;52.304;4.968;2022-10-16T03:39:19;18.99;66.64
9861;DHT22;4969;52.304;4.968;2022-10-16T03:41:45;19.14;66.80
9861;DHT22;4969;52.304;4.968;2022-10-16T03:44:12;18.62;67.02
9861;DHT22;4969;52.304;4.968;2022-10-16T03:46:39;18.62;64.32
9861;DHT22;4969;52.304;4.968;2022-10-16T03:49:06;18.93;67.34
9861;DHT22;4969;52.304;4.968;2022-10-16T03:51:32;18.57;68.38
9861;DHT22;4969;52.304;4.968;2022-10-16T03:53:59;18.34;68.31
9861;DHT22;4969;52.304;4.968;2022-10-16T03:56:27;18.30;68.23
9861;DHT22;4969;52.304;4.968;2022-10-16T03:58:53;18.95;67.56
9861;DHT22;4969;52.304;4.968;2022-10-16T04:01:20;18.82;65.10
9861;DHT22;4969;52.304;4.968;2022-10-16T04:03:47;18.95;67.42
9861;DHT22;4969;52.304;4.968;2022-10-16T04:06:13;18.95;67.39
9861;DHT22;4969;52.304;4.968;2022-10-16T04:08:42;18.96;64.46
9861;DHT22;4969;52.304;4.968;2022-10-16T04:11:08;18.90;67.33
9861;DHT22;4969;52.304;4.968;2022-10-16T04:13:36;18.72;67.42
9861;DHT22;4969;52.304;4.968;2022-10-16T04:16:03;19.00;66.00
9861;DHT22;4969;52.304;4.968;2022-10-16T04:18:30;19.06;67.01
9861;DHT22;4969;52.304;4.968;2022-10-16T04:20:57;19.14;66.87
9861;DHT22;4969;52.304;4.968;2022-10-16T04:23:27;19.14;64.60
9861;DHT22;4969;52.304;4.968;2022-10-16T04:25:54;19.06;67.27
9861;DHT22;4969;52.304;4.968;2022-10-16T04:28:20;19.22;66.78
9861;DHT22;4969;52.304;4.968;2022-10-16T04:30:48;19.27;66.35
9861;DHT22;4969;52.304;4.968;2022-10-16T04:33:15;19.30;66.60
9861;DHT22;4969;52.304;4.968;2022-10-16T04:35:41;19.48;65.92
9861;DHT22;4969;52.304;4.968;2022-10-16T04:38:08;19.54;65.13
9861;DHT22;4969;52.304;4.968;2022-10-16T04:40:35;19.42;66.44
9861;DHT22;4969;52.304;4.968;2022-10-16T04:43:02;18.97;66.18
9861;DHT22;4969;52.304;4.968;2022-10-16T04:45:28;19.03;66.89
9861;DHT22;4969;52.304;4.968;2022-10-16T04:47:58;18.67;65.93
9861;DHT22;4969;52.304;4.968;2022-10-16T04:50:24;18.33;67.99
9861;DHT22;4969;52.304;4.968;2022-10-16T04:52:51;18.27;66.42
9861;DHT22;4969;52.304;4.968;2022-10-16T04:55:18;18.00;70.66
9861;DHT22;4969;52.304;4.968;2022-10-16T04:57:44;18.34;68.55
9861;DHT22;4969;52.304;4.968;2022-10-16T05:00:11;18.45;67.70
9861;DHT22;4969;52.304;4.968;2022-10-16T05:02:38;17.82;69.17
9861;DHT22;4969;52.304;4.968;2022-10-16T05:05:07;17.48;70.54
9861;DHT22;4969;52.304;4.968;2022-10-16T05:07:33;17.40;69.25
9861;DHT22;4969;52.304;4.968;2022-10-16T05:10:00;17.51;71.98
9861;DHT22;4969;52.304;4.968;2022-10-16T05:12:26;17.37;71.61
9861;DHT22;4969;52.304;4.968;2022-10-16T05:14:53;17.13;70.21
9861;DHT22;4969;52.304;4.968;2022-10-16T05:17:23;17.32;70.89
9861;DHT22;4969;52.304;4.968;2022-10-16T05:19:50;17.49;73.41
9861;DHT22;4969;52.304;4.968;2022-10-16T05:22:18;17.62;68.49
9861;DHT22;4969;52.304;4.968;2022-10-16T05:24:45;17.78;69.11
9861;DHT22;4969;52.304;4.968;2022-10-16T05:27:11;17.92;70.99
9861;DHT22;4969;52.304;4.968;2022-10-16T05:29:44;18.02;69.91
9861;DHT22;4969;52.304;4.968;2022-10-16T05:32:11;18.34;68.42
9861;DHT22;4969;52.304;4.968;2022-10-16T05:34:37;18.69;67.65
9861;DHT22;4969;52.304;4.968;2022-10-16T05:37:04;17.72;70.39
9861;DHT22;4969;52.304;4.968;2022-10-16T05:39:32;18.27;69.63
9861;DHT22;4969;52.304;4.968;2022-10-16T05:41:59;17.69;68.91
9861;DHT22;4969;52.304;4.968;2022-10-16T05:44:25;17.30;70.16
9861;DHT22;4969;52.304;4.968;2022-10-16T05:46:52;17.31;70.81
9861;DHT22;4969;52.304;4.968;2022-10-16T05:49:19;17.59;72.25
9861;DHT22;4969;52.304;4.968;2022-10-16T05:51:45;17.51;70.74
9861;DHT22;4969;52.304;4.968;2022-10-16T05:54:12;17.64;71.84
9861;DHT22;4969;52.304;4.968;2022-10-16T05:56:40;17.54;70.07
9861;DHT22;4969;52.304;4.968;2022-10-16T05:59:06;17.61;71.65
9861;DHT22;4969;52.304;4.968;2022-10-16T06:01:33;16.91;71.52
9861;DHT22;4969;52.304;4.968;2022-10-16T06:04:00;16.91;73.15
9861;DHT22;4969;52.304;4.968;2022-10-16T06:06:28;17.06;72.77
9861;DHT22;4969;52.304;4.968;2022-10-16T06:08:56;17.75;71.70
9861;DHT22;4969;52.304;4.968;2022-10-16T06:11:24;17.82;70.99
9861;DHT22;4969;52.304;4.968;2022-10-16T06:13:54;17.10;72.07
9861;DHT22;4969;52.304;4.968;2022-10-16T06:16:22;17.27;74.07
9861;DHT22;4969;52.304;4.968;2022-10-16T06:18:50;17.04;71.86
9861;DHT22;4969;52.304;4.968;2022-10-16T06:21:19;16.86;74.31
9861;DHT22;4969;52.304;4.968;2022-10-16T06:23:46;17.72;72.69
9861;DHT22;4969;52.304;4.968;2022-10-16T06:26:15;18.07;70.46
9861;DHT22;4969;52.304;4.968;2022-10-16T06:28:42;17.71;71.49
9861;DHT22;4969;52.304;4.968;2022-10-16T06:31:12;17.68;72.14
9861;DHT22;4969;52.304;4.968;2022-10-16T06:33:39;17.38;73.41
9861;DHT22;4969;52.304;4.968;2022-10-16T06:36:08;17.92;69.66
9861;DHT22;4969;52.304;4.968;2022-10-16T06:38:35;18.12;71.56
9861;DHT22;4969;52.304;4.968;2022-10-16T06:41:03;18.21;69.30
9861;DHT22;4969;52.304;4.968;2022-10-16T06:43:30;18.58;69.71
9861;DHT22;4969;52.304;4.968;2022-10-16T06:45:58;18.71;69.11
9861;DHT22;4969;52.304;4.968;2022-10-16T06:48:27;18.69;69.22
9861;DHT22;4969;52.304;4.968;2022-10-16T06:50:58;18.38;70.15
9861;DHT22;4969;52.304;4.968;2022-10-16T06:53:27;18.30;69.04
9861;DHT22;4969;52.304;4.968;2022-10-16T06:55:53;17.90;71.17
9861;DHT22;4969;52.304;4.968;2022-10-16T06:58:20;18.30;70.30
9861;DHT22;4969;52.304;4.968;2022-10-16T07:00:47;18.35;69.12
9861;DHT22;4969;52.304;4.968;2022-10-16T07:03:14;18.16;68.75
9861;DHT22;4969;52.304;4.968;2022-10-16T07:05:42;18.14;70.16
9861;DHT22;4969;52.304;4.968;2022-10-16T07:08:09;18.27;68.29
9861;DHT22;4969;52.304;4.968;2022-10-16T07:10:36;17.95;70.72
9861;DHT22;4969;52.304;4.968;2022-10-16T07:13:03;18.38;70.36
9861;DHT22;4969;52.304;4.968;2022-10-16T07:15:29;18.04;68.35
9861;DHT22;4969;52.304;4.968;2022-10-16T07:17:56;18.10;71.21
9861;DHT22;4969;52.304;4.968;2022-10-16T07:20:22;18.25;68.06
9861;DHT22;4969;52.304;4.968;2022-10-16T07:22:50;17.79;71.43
9861;DHT22;4969;52.304;4.968;2022-10-16T07:25:17;17.87;71.77
9861;DHT22;4969;52.304;4.968;2022-10-16T07:27:44;17.42;69.59
9861;DHT22;4969;52.304;4.968;2022-10-16T07:30:11;17.57;71.51
9861;DHT22;4969;52.304;4.968;2022-10-16T07:32:37;17.41;69.88
9861;DHT22;4969;52.304;4.968;2022-10-16T07:35:05;17.65;71.38
9861;DHT22;4969;52.304;4.968;2022-10-16T07:37:31;17.49;72.05
9861;DHT22;4969;52.304;4.968;2022-10-16T07:39:59;16.72;71.25
9861;DHT22;4969;52.304;4.968;2022-10-16T07:42:27;17.02;72.33
9861;DHT22;4969;52.304;4.968;2022-10-16T07:44:53;17.37;70.99
9861;DHT22;4969;52.304;4.968;2022-10-16T07:47:20;17.14;73.28
9861;DHT22;4969;52.304;4.968;2022-10-16T07:49:46;17.44;72.93
9861;DHT22;4969;52.304;4.968;2022-10-16T07:52:13;17.37;72.61
9861;DHT22;4969;52.304;4.968;2022-10-16T07:54:40;17.69;71.98
9861;DHT22;4969;52.304;4.968;2022-10-16T07:57:08;17.86;71.33
9861;DHT22;4969;52.304;4.968;2022-10-16T07:59:34;18.00;69.45
9861;DHT22;4969;52.304;4.968;2022-10-16T08:02:01;18.13;70.52
9861;DHT22;4969;52.304;4.968;2022-10-16T08:04:28;18.18;69.15
9861;DHT22;4969;52.304;4.968;2022-10-16T08:06:54;17.38;69.59
9861;DHT22;4969;52.304;4.968;2022-10-16T08:09:21;17.57;71.47
9861;DHT22;4969;52.304;4.968;2022-10-16T08:11:47;17.42;70.18
9861;DHT22;4969;52.304;4.968;2022-10-16T08:14:15;17.37;69.97
9861;DHT22;4969;52.304;4.968;2022-10-16T08:16:42;17.24;72.32
9861;DHT22;4969;52.304;4.968;2022-10-16T08:19:08;17.45;71.09
9861;DHT22;4969;52.304;4.968;2022-10-16T08:21:35;17.81;72.14
9861;DHT22;4969;52.304;4.968;2022-10-16T08:24:02;18.21;69.42
9861;DHT22;4969;52.304;4.968;2022-10-16T08:26:28;17.87;70.59
9861;DHT22;4969;52.304;4.968;2022-10-16T08:28:55;18.58;70.10
9861;DHT22;4969;52.304;4.968;2022-10-16T08:31:23;18.33;70.15
9861;DHT22;4969;52.304;4.968;2022-10-16T08:33:51;18.06;70.07
9861;DHT22;4969;52.304;4.968;2022-10-16T08:36:17;18.55;68.25
9861;DHT22;4969;52.304;4.968;2022-10-16T08:38:47;18.54;69.40
9861;DHT22;4969;52.304;4.968;2022-10-16T08:41:22;18.67;67.75
9861;DHT22;4969;52.304;4.968;2022-10-16T08:44:02;18.21;68.31
9861;DHT22;4969;52.304;4.968;2022-10-16T08:46:40;18.18;68.42
9861;DHT22;4969;52.304;4.968;2022-10-16T08:49:11;18.44;70.49
9861;DHT22;4969;52.304;4.968;2022-10-16T08:51:39;18.33;68.02
9861;DHT22;4969;52.304;4.968;2022-10-16T08:54:10;18.54;68.23
9861;DHT22;4969;52.304;4.968;2022-10-16T08:56:41;18.33;68.32
9861;DHT22;4969;52.304;4.968;2022-10-16T08:59:10;18.14;70.77
9861;DHT22;4969;52.304;4.968;2022-10-16T09:01:41;17.93;72.04
9861;DHT22;4969;52.304;4.968;2022-10-16T09:04:39;18.12;70.23
9861;DHT22;4969;52.304;4.968;2022-10-16T09:07:13;18.24;71.13
9861;DHT22;4969;52.304;4.968;2022-10-16T09:09:53;18.12;72.75
9861;DHT22;4969;52.304;4.968;2022-10-16T09:12:26;18.55;71.01
9861;DHT22;4969;52.304;4.968;2022-10-16T09:15:01;17.96;72.26
9861;DHT22;4969;52.304;4.968;2022-10-16T09:17:37;17.93;72.78
9861;DHT22;4969;52.304;4.968;2022-10-16T09:20:17;17.65;72.04
9861;DHT22;4969;52.304;4.968;2022-10-16T09:22:44;18.02;70.65
9861;DHT22;4969;52.304;4.968;2022-10-16T09:25:13;18.31;70.83
9861;DHT22;4969;52.304;4.968;2022-10-16T09:27:40;18.54;70.14
9861;DHT22;4969;52.304;4.968;2022-10-16T09:30:12;18.65;68.56
9861;DHT22;4969;52.304;4.968;2022-10-16T09:32:41;17.97;69.89
9861;DHT22;4969;52.304;4.968;2022-10-16T09:35:13;17.74;70.70
9861;DHT22;4969;52.304;4.968;2022-10-16T09:37:42;17.95;71.44
9861;DHT22;4969;52.304;4.968;2022-10-16T09:40:13;17.62;70.38
9861;DHT22;4969;52.304;4.968;2022-10-16T09:42:39;17.71;72.87
9861;DHT22;4969;52.304;4.968;2022-10-16T09:45:20;17.76;71.01
9861;DHT22;4969;52.304;4.968;2022-10-16T09:47:50;17.86;74.15
9861;DHT22;4969;52.304;4.968;2022-10-16T09:50:22;17.74;70.72
9861;DHT22;4969;52.304;4.968;2022-10-16T09:52:50;17.49;70.13
9861;DHT22;4969;52.304;4.968;2022-10-16T09:55:18;17.71;70.48
9861;DHT22;4969;52.304;4.968;2022-10-16T09:57:51;18.00;73.88
9861;DHT22;4969;52.304;4.968;2022-10-16T10:00:18;17.93;74.06
9861;DHT22;4969;52.304;4.968;2022-10-16T10:02:45;17.90;72.96
9861;DHT22;4969;52.304;4.968;2022-10-16T10:05:21;18.04;74.34
9861;DHT22;4969;52.304;4.968;2022-10-16T10:07:55;18.03;69.71
9861;DHT22;4969;52.304;4.968;2022-10-16T10:10:24;18.20;72.22
9861;DHT22;4969;52.304;4.968;2022-10-16T10:12:52;18.47;73.17
9861;DHT22;4969;52.304;4.968;2022-10-16T10:15:19;18.37;67.72
9861;DHT22;4969;52.304;4.968;2022-10-16T10:17:48;18.16;69.68
9861;DHT22;4969;52.304;4.968;2022-10-16T10:20:25;17.93;72.63
9861;DHT22;4969;52.304;4.968;2022-10-16T10:22:52;17.99;73.63
9861;DHT22;4969;52.304;4.968;2022-10-16T10:25:43;17.67;69.43
9861;DHT22;4969;52.304;4.968;2022-10-16T10:28:24;17.96;73.70
9861;DHT22;4969;52.304;4.968;2022-10-16T10:30:57;18.45;69.61
9861;DHT22;4969;52.304;4.968;2022-10-16T10:33:33;18.71;69.88
9861;DHT22;4969;52.304;4.968;2022-10-16T10:36:14;18.79;72.47
9861;DHT22;4969;52.304;4.968;2022-10-16T10:38:48;18.34;66.89
9861;DHT22;4969;52.304;4.968;2022-10-16T10:41:29;18.17;66.47
9861;DHT22;4969;52.304;4.968;2022-10-16T10:44:05;18.13;69.88
9861;DHT22;4969;52.304;4.968;2022-10-16T10:46:35;17.99;68.53
9861;DHT22;4969;52.304;4.968;2022-10-16T10:49:25;17.85;68.42
9861;DHT22;4969;52.304;4.968;2022-10-16T10:52:02;17.71;67.05
9861;DHT22;4969;52.304;4.968;2022-10-16T10:54:39;17.85;67.82
9861;DHT22;4969;52.304;4.968;2022-10-16T10:57:10;17.59;66.61
9861;DHT22;4969;52.304;4.968;2022-10-16T10:59:52;17.71;67.33
9861;DHT22;4969;52.304;4.968;2022-10-16T11:02:26;18.07;68.52
9861;DHT22;4969;52.304;4.968;2022-10-16T11:05:21;17.83;66.67
9861;DHT22;4969;52.304;4.968;2022-10-16T11:07:55;17.71;67.32
9861;DHT22;4969;52.304;4.968;2022-10-16T11:10:26;17.78;66.47
9861;DHT22;4969;52.304;4.968;2022-10-16T11:12:58;17.81;68.08
9861;DHT22;4969;52.304;4.968;2022-10-16T11:15:31;18.30;73.37
9861;DHT22;4969;52.304;4.968;2022-10-16T11:18:03;19.06;68.07
9861;DHT22;4969;52.304;4.968;2022-10-16T11:20:34;19.22;68.24
9861;DHT22;4969;52.304;4.968;2022-10-16T11:23:10;18.59;64.31
9861;DHT22;4969;52.304;4.968;2022-10-16T11:25:43;18.71;65.52
9861;DHT22;4969;52.304;4.968;2022-10-16T11:28:11;18.76;62.96
9861;DHT22;4969;52.304;4.968;2022-10-16T11:30:43;19.14;62.46
9861;DHT22;4969;52.304;4.968;2022-10-16T11:33:30;18.93;68.90
9861;DHT22;4969;52.304;4.968;2022-10-16T11:36:06;19.35;60.90
9861;DHT22;4969;52.304;4.968;2022-10-16T11:38:41;18.85;64.52
9861;DHT22;4969;52.304;4.968;2022-10-16T11:41:15;18.59;66.35
9861;DHT22;4969;52.304;4.968;2022-10-16T11:43:50;18.31;61.14
9861;DHT22;4969;52.304;4.968;2022-10-16T11:46:20;18.35;59.69
9861;DHT22;4969;52.304;4.968;2022-10-16T11:48:52;17.99;56.81
9861;DHT22;4969;52.304;4.968;2022-10-16T11:51:26;18.02;66.61
9861;DHT22;4969;52.304;4.968;2022-10-16T11:54:03;19.04;68.58
9861;DHT22;4969;52.304;4.968;2022-10-16T11:56:36;19.19;58.29
9861;DHT22;4969;52.304;4.968;2022-10-16T11:59:08;19.14;64.38
9861;DHT22;4969;52.304;4.968;2022-10-16T12:01:44;18.69;61.01
9861;DHT22;4969;52.304;4.968;2022-10-16T12:04:19;18.88;65.79
9861;DHT22;4969;52.304;4.968;2022-10-16T12:06:51;19.50;61.68
9861;DHT22;4969;52.304;4.968;2022-10-16T12:09:24;19.28;61.79
9861;DHT22;4969;52.304;4.968;2022-10-16T12:11:52;18.97;55.35
9861;DHT22;4969;52.304;4.968;2022-10-16T12:14:33;19.26;64.72
9861;DHT22;4969;52.304;4.968;2022-10-16T12:17:02;19.58;59.08
9861;DHT22;4969;52.304;4.968;2022-10-16T12:19:31;19.19;56.34
9861;DHT22;4969;52.304;4.968;2022-10-16T12:22:00;19.17;53.30
9861;DHT22;4969;52.304;4.968;2022-10-16T12:24:34;18.76;57.91
9861;DHT22;4969;52.304;4.968;2022-10-16T12:27:02;18.55;58.60
9861;DHT22;4969;52.304;4.968;2022-10-16T12:29:35;18.62;53.51
9861;DHT22;4969;52.304;4.968;2022-10-16T12:32:04;18.45;60.44
9861;DHT22;4969;52.304;4.968;2022-10-16T12:34:39;18.30;56.33
9861;DHT22;4969;52.304;4.968;2022-10-16T12:37:11;18.41;56.79
9861;DHT22;4969;52.304;4.968;2022-10-16T12:39:40;18.57;64.54
9861;DHT22;4969;52.304;4.968;2022-10-16T12:42:21;18.99;63.16
9861;DHT22;4969;52.304;4.968;2022-10-16T12:44:47;18.80;56.71
9861;DHT22;4969;52.304;4.968;2022-10-16T12:47:21;18.64;55.80
9861;DHT22;4969;52.304;4.968;2022-10-16T12:49:50;18.61;63.29
9861;DHT22;4969;52.304;4.968;2022-10-16T12:52:25;18.90;59.95
9861;DHT22;4969;52.304;4.968;2022-10-16T12:54:56;19.23;64.18
9861;DHT22;4969;52.304;4.968;2022-10-16T12:57:34;19.35;57.24
9861;DHT22;4969;52.304;4.968;2022-10-16T13:00:09;19.38;56.54
9861;DHT22;4969;52.304;4.968;2022-10-16T13:03:04;19.37;55.96
9861;DHT22;4969;52.304;4.968;2022-10-16T13:05:46;19.69;68.31
9861;DHT22;4969;52.304;4.968;2022-10-16T13:08:34;19.82;68.86
9861;DHT22;4969;52.304;4.968;2022-10-16T13:11:09;20.05;54.66
9861;DHT22;4969;52.304;4.968;2022-10-16T13:14:10;19.80;61.37
9861;DHT22;4969;52.304;4.968;2022-10-16T13:16:50;19.45;62.32
9861;DHT22;4969;52.304;4.968;2022-10-16T13:19:24;19.28;54.71
9861;DHT22;4969;52.304;4.968;2022-10-16T13:21:58;18.96;57.62
9861;DHT22;4969;52.304;4.968;2022-10-16T13:24:40;18.90;56.41
9861;DHT22;4969;52.304;4.968;2022-10-16T13:27:15;19.41;64.50
9861;DHT22;4969;52.304;4.968;2022-10-16T13:29:45;19.62;56.67
9861;DHT22;4969;52.304;4.968;2022-10-16T13:32:19;19.65;59.84
9861;DHT22;4969;52.304;4.968;2022-10-16T13:34:48;19.13;58.92
9861;DHT22;4969;52.304;4.968;2022-10-16T13:37:17;19.66;63.45
9861;DHT22;4969;52.304;4.968;2022-10-16T13:39:45;19.99;61.01
9861;DHT22;4969;52.304;4.968;2022-10-16T13:42:16;19.59;59.51
9861;DHT22;4969;52.304;4.968;2022-10-16T13:44:48;19.93;58.08
9861;DHT22;4969;52.304;4.968;2022-10-16T13:47:17;20.10;64.55
9861;DHT22;4969;52.304;4.968;2022-10-16T13:49:44;19.96;60.37
9861;DHT22;4969;52.304;4.968;2022-10-16T13:52:18;19.69;57.35
9861;DHT22;4969;52.304;4.968;2022-10-16T13:54:45;19.55;58.85
9861;DHT22;4969;52.304;4.968;2022-10-16T13:57:14;19.55;57.84
9861;DHT22;4969;52.304;4.968;2022-10-16T13:59:41;19.38;61.81
9861;DHT22;4969;52.304;4.968;2022-10-16T14:02:17;19.14;58.80
9861;DHT22;4969;52.304;4.968;2022-10-16T14:04:46;19.04;58.99
9861;DHT22;4969;52.304;4.968;2022-10-16T14:07:14;19.61;64.68
9861;DHT22;4969;52.304;4.968;2022-10-16T14:09:48;19.65;59.01
9861;DHT22;4969;52.304;4.968;2022-10-16T14:12:17;19.93;64.84
9861;DHT22;4969;52.304;4.968;2022-10-16T14:14:46;19.62;60.68
9861;DHT22;4969;52.304;4.968;2022-10-16T14:17:13;19.24;58.62
9861;DHT22;4969;52.304;4.968;2022-10-16T14:19:40;18.93;57.46
9861;DHT22;4969;52.304;4.968;2022-10-16T14:22:28;18.76;57.32
9861;DHT22;4969;52.304;4.968;2022-10-16T14:24:56;18.79;59.81
9861;DHT22;4969;52.304;4.968;2022-10-16T14:27:30;19.31;61.33
9861;DHT22;4969;52.304;4.968;2022-10-16T14:30:15;19.04;67.96
9861;DHT22;4969;52.304;4.968;2022-10-16T14:32:53;19.51;60.77
9861;DHT22;4969;52.304;4.968;2022-10-16T14:35:27;19.59;64.99
9861;DHT22;4969;52.304;4.968;2022-10-16T14:37:55;19.97;65.96
9861;DHT22;4969;52.304;4.968;2022-10-16T14:40:24;20.13;65.02
9861;DHT22;4969;52.304;4.968;2022-10-16T14:42:53;19.65;57.76
9861;DHT22;4969;52.304;4.968;2022-10-16T14:45:21;19.73;61.21
9861;DHT22;4969;52.304;4.968;2022-10-16T14:47:50;19.34;62.64
9861;DHT22;4969;52.304;4.968;2022-10-16T14:50:18;19.28;60.16
9861;DHT22;4969;52.304;4.968;2022-10-16T14:52:45;19.10;58.97
9861;DHT22;4969;52.304;4.968;2022-10-16T14:55:11;18.83;66.34
9861;DHT22;4969;52.304;4.968;2022-10-16T14:57:39;19.38;64.02
9861;DHT22;4969;52.304;4.968;2022-10-16T15:00:15;19.22;56.87
9861;DHT22;4969;52.304;4.968;2022-10-16T15:02:42;19.28;63.31
9861;DHT22;4969;52.304;4.968;2022-10-16T15:05:14;19.19;60.26
9861;DHT22;4969;52.304;4.968;2022-10-16T15:07:41;19.07;63.48
9861;DHT22;4969;52.304;4.968;2022-10-16T15:10:08;19.08;62.50
9861;DHT22;4969;52.304;4.968;2022-10-16T15:12:35;19.38;67.37
9861;DHT22;4969;52.304;4.968;2022-10-16T15:15:02;19.66;65.55
9861;DHT22;4969;52.304;4.968;2022-10-16T15:17:29;19.79;66.90
9861;DHT22;4969;52.304;4.968;2022-10-16T15:19:56;20.10;66.59
9861;DHT22;4969;52.304;4.968;2022-10-16T15:22:24;19.87;65.84
9861;DHT22;4969;52.304;4.968;2022-10-16T15:24:51;19.75;66.62
9861;DHT22;4969;52.304;4.968;2022-10-16T15:27:17;19.42;63.67
9861;DHT22;4969;52.304;4.968;2022-10-16T15:29:44;19.04;60.89
9861;DHT22;4969;52.304;4.968;2022-10-16T15:32:10;18.65;61.88
9861;DHT22;4969;52.304;4.968;2022-10-16T15:34:38;18.51;62.87
9861;DHT22;4969;52.304;4.968;2022-10-16T15:37:05;18.43;61.97
9861;DHT22;4969;52.304;4.968;2022-10-16T15:39:31;18.37;61.80
9861;DHT22;4969;52.304;4.968;2022-10-16T15:41:58;18.16;62.53
9861;DHT22;4969;52.304;4.968;2022-10-16T15:44:25;18.00;63.54
9861;DHT22;4969;52.304;4.968;2022-10-16T15:46:55;17.99;64.29
9861;DHT22;4969;52.304;4.968;2022-10-16T15:49:22;17.93;64.85
9861;DHT22;4969;52.304;4.968;2022-10-16T15:51:50;17.85;65.53
9861;DHT22;4969;52.304;4.968;2022-10-16T15:54:18;17.81;65.83
9861;DHT22;4969;52.304;4.968;2022-10-16T15:56:47;17.72;66.18
9861;DHT22;4969;52.304;4.968;2022-10-16T15:59:14;17.58;66.80
9861;DHT22;4969;52.304;4.968;2022-10-16T16:01:40;17.47;67.23
9861;DHT22;4969;52.304;4.968;2022-10-16T16:04:07;17.38;67.96
9861;DHT22;4969;52.304;4.968;2022-10-16T16:06:33;17.31;68.11
9861;DHT22;4969;52.304;4.968;2022-10-16T16:09:04;17.23;68.23
9861;DHT22;4969;52.304;4.968;2022-10-16T16:11:30;17.14;68.63
9861;DHT22;4969;52.304;4.968;2022-10-16T16:13:58;17.10;69.12
9861;DHT22;4969;52.304;4.968;2022-10-16T16:16:25;17.09;69.11
9861;DHT22;4969;52.304;4.968;2022-10-16T16:18:52;17.06;69.36